AirNav   Phillips 66 Aviation Fuel
 
 816 users online  

W58 Cedars North Airpark
Battle Ground, Washington, USA

GOING TO BATTLE GROUND?


FAA INFORMATION EFFECTIVE 03 JANUARY 2019

Location

FAA Identifier: W58
Lat/Long: 45-45-52.4000N / 122-30-54.3000W
45-45.873333N / 122-30.905000W
45.7645556 / -122.5150833
(estimated)
Elevation: 275 ft. / 84 m (estimated)
Variation: 19E (1985)
From city: 1 mile NW of BATTLE GROUND, WA
Time zone: UTC -8 (UTC -7 during Daylight Saving Time)
Zip code: 98604

Airport Operations

Airport use: Open to the public
Activation date: 06/1991
Control tower: no
ARTCC: SEATTLE CENTER
FSS: SEATTLE FLIGHT SERVICE STATION
NOTAMs facility: SEA (NOTAM-D service available)
Attendance: UNATNDD
Wind indicator: yes
Segmented circle: no

Airport Communications

CTAF: 122.9
WX ASOS at VUO (10 nm SW): 135.125 (360-696-1280)
WX ASOS at PDX (11 nm S): PHONE (503) 493-7687
WX ASOS at TTD (14 nm S): 135.625 (503-492-2887)
WX ASOS at SPB (15 nm W): 135.875 (503-543-6401)

Nearby radio navigation aids

VOR radial/distance  VOR name  Freq  Var
BTGr052/3.4BATTLE GROUND VORTAC116.6021E
UBGr017/31.4NEWBERG VOR/DME117.4021E

 
NDB name  Hdg/Dist  Freq  Var  ID
BANKS054/23.735616EPND .--. -. -..
KELSO128/28.725617ELSO .-.. ... ---

Airport Services

Runway Information

Runway 8/26

Dimensions: 1960 x 50 ft. / 597 x 15 m
Surface: turf
RY EDGES MARKED WITH WHITE CONES.
RUNWAY 8  RUNWAY 26
Traffic pattern: leftleft
Obstructions: 70 ft. trees, 872 ft. from runway, 12:1 slope to clear101 ft. trees, 864 ft. from runway, 19 ft. left of centerline, 8:1 slope to clear

Airport Ownership and Management from official FAA records

Ownership: Privately-owned
Owner: CEDARS HOMEOWNERS ASSOCIATION
19506 NE 157 AVE
BATTLE GROUND, WA 98604
Phone 360-687-1208
Manager: MEL CARSTETTER
19506 NE 157 AVE
BATTLE GROUND, WA 98604
Phone 360-687-1208

Airport Operational Statistics

Aircraft based on the field: 4
Single engine airplanes: 4
    
Aircraft operations: avg 24/week *
48% transient general aviation
48% local general aviation
4% military
* for 12-month period ending 31 December 2016

Additional Remarks

BIRDS ON AND INVOF ARPT.
RWY 08 5 FT FENCE POSTS, 84 FT FROM THRESHOLD.
RWY AND TAXIWAY SOFT IN WINTER.
FOR CD CTC P80 APCH AT 503-493-7545.

Instrument Procedures

There are no published instrument procedures at W58.

Some nearby airports with instrument procedures:

KVUO - Pearson Field Airport (10 nm SW)
KPDX - Portland International Airport (11 nm S)
KTTD - Portland-Troutdale Airport (14 nm S)
KSPB - Scappoose Industrial Airpark (15 nm W)
KHIO - Portland-Hillsboro Airport (23 nm SW)
 
Loc | Ops | Rwys | IFR | FBO | Links
Com | Nav | Svcs | Stats | Notes
Area around W58 (Cedars North Airpark)
 
Road maps at: MapQuest Bing Google
 
Aerial photo
WARNING: Photo may not be current or correct
Aerial photo of W58 (Cedars North Airpark)
Do you have a better or more recent aerial photo of Cedars North Airpark that you would like to share? If so, please send us your photo.

 
Sectional chart

 
Airport distance calculator
Flying to Cedars North Airpark? Find the distance to fly.

From to W58

Sunrise and sunset
Times for 18-Jan-2019
 Local
(UTC-8)
 Zulu
(UTC)
Morning civil twilight07:1315:13
Sunrise07:4615:46
Sunset16:5500:55
Evening civil twilight17:2801:28

Current date and time
Zulu (UTC)  19-Jan-2019 03:37:45
Local (UTC-8)  18-Jan-2019 19:37:45
 
METAR
KVUO 
11nm SW 
190253Z AUTO 13008KT 5SM RA BR FEW014 BKN026 OVC034 06/05 A2993 RMK AO2 SLP135 P0017 60049 T00610050 58011
KPDX 
11nm S 
190323Z 12014KT 4SM RA BR FEW012 BKN024 OVC032 07/06 A2994 RMK AO2 P0005 T00670056
KTTD 
14nm S 
190253Z 09020G27KT 5SM -RA BR OVC035 06/04 A2994 RMK AO2 PK WND 09027/0227 SLP138 P0020 60045 T00610044 58020
KSPB 
15nm W 
190253Z AUTO 19007KT 4SM -RA BR BKN007 OVC019 08/06 A2993 RMK AO2 SLP133 P0013 60041 T00780056 56024
TAF
KPDX 
11nm S 
182057Z 1821/1918 12011KT P6SM -RA OVC050 FM182300 12015KT 5SM -RA BR BKN022 OVC035 FM190500 17018G28KT 5SM RA BKN015 OVC025 FM191300 19014G22KT P6SM -RA SCT015 OVC035
KTTD 
14nm S 
181730Z 1818/1918 09012G20KT P6SM SCT030 BKN050 OVC080 FM182100 09015G25KT P6SM -RA OVC050 FM190000 09013G21KT 3SM RA BR SCT012 OVC025 FM190500 11010KT 4SM RA BR BKN012 OVC025 FM190900 19010KT 5SM -RA BR BKN015 OVC025 FM191400 22008KT P6SM -SHRA SCT015 BKN025 OVC040
NOTAMs
Click for the latest NOTAMs
NOTAMs are issued by the DoD/FAA and will open in a separate window not controlled by AirNav.

 

 
 

Would you like to see your business listed on this page?

 If your business provides an interesting product or service to pilots, flight crews, aircraft, or users of the Cedars North Airpark, you should consider listing it here.  To start the listing process, click on the button below
 
Add a business
 

Other Pages about Cedars North Airpark

Update a link
 
Copyright © AirNav, LLC. All rights reserved. Privacy Policy  Contact